createdAt,value
2023-12-28T00:02:00.335Z,97302.09
2023-12-28T00:04:47.152Z,97303.91
2023-12-28T00:07:34.175Z,97302.44
2023-12-28T00:10:21.021Z,97311.53
2023-12-28T00:13:07.823Z,97304.41
2023-12-28T00:15:54.687Z,97316.16
2023-12-28T00:18:41.670Z,97321.63
2023-12-28T00:21:28.819Z,97326.09
2023-12-28T00:24:16.758Z,97316.50
2023-12-28T00:27:03.678Z,97315.81
2023-12-28T00:29:50.554Z,97318.66
2023-12-28T00:32:37.421Z,97315.13
2023-12-28T00:35:24.317Z,97315.31
2023-12-28T00:38:11.253Z,97309.19
2023-12-28T00:40:58.822Z,97311.03
2023-12-28T00:43:45.692Z,97312.16
2023-12-28T00:46:32.507Z,97301.75
2023-12-28T00:49:19.542Z,97298.59
2023-12-28T00:52:06.671Z,97305.38
2023-12-28T00:54:54.890Z,97319.59
2023-12-28T00:57:41.800Z,97315.31
2023-12-28T01:00:30.100Z,97314.63
2023-12-28T01:03:17.215Z,97320.91
2023-12-28T01:06:08.564Z,97321.91
2023-12-28T01:08:56.282Z,97316.75
2023-12-28T01:11:43.147Z,97317.09
2023-12-28T01:14:29.971Z,97332.13
2023-12-28T01:17:16.881Z,97341.06
2023-12-28T01:20:05.021Z,97342.22
2023-12-28T01:22:52.017Z,97335.28
2023-12-28T01:25:38.890Z,97342.38
2023-12-28T01:28:25.750Z,97345.16
2023-12-28T01:31:12.830Z,97347.81
2023-12-28T01:33:59.881Z,97335.75
2023-12-28T01:36:46.888Z,97340.22
2023-12-28T01:39:33.990Z,97333.44
2023-12-28T01:42:20.923Z,97343.19
2023-12-28T01:45:08.121Z,97347.78
2023-12-28T01:47:57.755Z,97345.47
2023-12-28T01:50:44.806Z,97338.22
2023-12-28T01:53:31.836Z,97341.16
2023-12-28T01:56:19.742Z,97331.59
2023-12-28T01:59:06.751Z,97337.00
2023-12-28T02:01:53.688Z,97348.59
2023-12-28T02:04:40.703Z,97328.56
2023-12-28T02:07:28.400Z,97338.63
2023-12-28T02:10:15.286Z,97348.56
2023-12-28T02:13:02.156Z,97345.41
2023-12-28T02:15:52.919Z,97342.91
2023-12-28T02:18:47.762Z,97337.94
2023-12-28T02:21:35.212Z,97345.19
2023-12-28T02:24:22.113Z,97334.78
2023-12-28T02:27:08.937Z,97324.53
2023-12-28T02:29:56.864Z,97334.41
2023-12-28T02:33:09.526Z,97320.34
2023-12-28T02:35:59.143Z,97324.97
2023-12-28T02:38:46.726Z,97329.63
2023-12-28T02:41:34.120Z,97323.66
2023-12-28T02:44:21.043Z,97317.53
2023-12-28T02:47:07.902Z,97327.44
2023-12-28T02:49:54.894Z,97327.75
2023-12-28T02:52:41.869Z,97327.06
2023-12-28T02:55:28.967Z,97324.75
2023-12-28T02:58:15.820Z,97322.09
2023-12-28T03:01:02.796Z,97324.22
2023-12-28T03:03:49.810Z,97322.75
2023-12-28T03:06:36.821Z,97323.88
2023-12-28T03:09:23.713Z,97315.13
2023-12-28T03:12:10.742Z,97321.41
2023-12-28T03:14:57.692Z,97319.06
2023-12-28T03:17:44.707Z,97318.38
2023-12-28T03:20:38.333Z,97320.03
2023-12-28T03:23:25.198Z,97322.03
2023-12-28T03:26:12.064Z,97322.16
2023-12-28T03:28:58.934Z,97333.72
2023-12-28T03:31:45.979Z,97322.50
2023-12-28T03:34:33.657Z,97324.28
2023-12-28T03:37:20.608Z,97320.16
2023-12-28T03:40:08.018Z,97325.56
2023-12-28T03:42:54.984Z,97322.94
2023-12-28T03:45:41.956Z,97326.75
2023-12-28T03:48:28.903Z,97319.94
2023-12-28T03:51:16.683Z,97333.97
2023-12-28T03:54:03.685Z,97336.78
2023-12-28T03:56:50.630Z,97336.78
2023-12-28T03:59:37.532Z,97338.75
2023-12-28T04:02:25.823Z,97343.50
2023-12-28T04:05:12.965Z,97343.81
2023-12-28T04:08:01.611Z,97346.63
2023-12-28T04:10:48.420Z,97355.66
2023-12-28T04:13:35.740Z,97361.94
2023-12-28T04:16:22.603Z,97350.69
2023-12-28T04:19:09.573Z,97358.59
2023-12-28T04:21:57.280Z,97342.09
2023-12-28T04:24:44.282Z,97343.06
2023-12-28T04:27:31.265Z,97353.63
2023-12-28T04:30:18.532Z,97359.06
2023-12-28T04:33:05.682Z,97359.25
2023-12-28T04:35:52.548Z,97353.78
2023-12-28T04:38:40.172Z,97357.25
2023-12-28T04:41:27.084Z,97355.44
2023-12-28T04:44:13.933Z,97352.13
2023-12-28T04:47:02.281Z,97356.44
2023-12-28T04:49:49.288Z,97362.00
2023-12-28T04:52:36.256Z,97363.00
2023-12-28T04:55:23.177Z,97366.94
2023-12-28T04:58:11.802Z,97359.16
2023-12-28T05:00:58.871Z,97366.25
2023-12-28T05:03:45.871Z,97362.09
2023-12-28T05:06:32.788Z,97357.13
2023-12-28T05:09:19.669Z,97339.75
2023-12-28T05:12:06.882Z,97339.75
2023-12-28T05:14:56.949Z,97344.34
2023-12-28T05:17:44.888Z,97337.56
2023-12-28T05:20:31.871Z,97354.53
2023-12-28T05:23:18.726Z,97349.72
2023-12-28T05:26:05.834Z,97369.16
2023-12-28T05:28:52.719Z,97365.03
2023-12-28T05:31:39.781Z,97362.69
2023-12-28T05:34:26.870Z,97360.03
2023-12-28T05:37:13.836Z,97360.34
2023-12-28T05:40:00.934Z,97369.25
2023-12-28T05:42:47.897Z,97367.56
2023-12-28T05:45:34.769Z,97357.31
2023-12-28T05:48:21.715Z,97357.47
2023-12-28T05:51:08.644Z,97345.38
2023-12-28T05:53:55.630Z,97360.56
2023-12-28T05:56:42.551Z,97362.22
2023-12-28T05:59:29.388Z,97356.28
2023-12-28T06:02:16.407Z,97361.69
2023-12-28T06:05:03.410Z,97355.72
2023-12-28T06:07:50.417Z,97355.03
2023-12-28T06:10:37.260Z,97363.13
2023-12-28T06:13:24.107Z,97369.34
2023-12-28T06:16:11.102Z,97362.44
2023-12-28T06:18:58.149Z,97373.97
2023-12-28T06:21:45.065Z,97372.16
2023-12-28T06:24:31.942Z,97376.59
2023-12-28T06:27:18.796Z,97372.44
2023-12-28T06:30:06.368Z,97374.25
2023-12-28T06:32:53.430Z,97381.47
2023-12-28T06:35:40.297Z,97378.00
2023-12-28T06:38:27.165Z,97381.63
2023-12-28T06:41:14.307Z,97379.97
2023-12-28T06:44:01.396Z,97384.84
2023-12-28T06:46:48.276Z,97386.28
2023-12-28T06:49:35.245Z,97391.81
2023-12-28T06:52:22.119Z,97391.06
2023-12-28T06:55:09.067Z,97412.25
2023-12-28T06:57:56.103Z,97421.41
2023-12-28T07:00:45.098Z,97426.53
2023-12-28T07:03:33.608Z,97426.34
2023-12-28T07:06:20.630Z,97432.47
2023-12-28T07:09:07.548Z,97430.16
2023-12-28T07:11:54.395Z,97435.44
2023-12-28T07:14:41.247Z,97423.34
2023-12-28T07:17:28.115Z,97427.81
2023-12-28T07:20:15.123Z,97427.09
2023-12-28T07:23:01.957Z,97428.09
2023-12-28T07:25:48.945Z,97427.25
2023-12-28T07:28:35.981Z,97437.94
2023-12-28T07:31:27.240Z,97426.56
2023-12-28T07:34:14.355Z,97442.41
2023-12-28T07:37:01.346Z,97438.09
2023-12-28T07:39:48.593Z,97440.03
2023-12-28T07:42:35.687Z,97433.94
2023-12-28T07:45:24.790Z,97435.75
2023-12-28T07:48:11.792Z,97437.56
2023-12-28T07:50:58.925Z,97442.03
2023-12-28T07:53:45.804Z,97422.56
2023-12-28T07:56:32.820Z,97422.56
2023-12-28T07:59:19.667Z,97428.00
2023-12-28T08:02:06.483Z,97423.56
2023-12-28T08:04:53.987Z,97414.81
2023-12-28T08:07:40.871Z,97424.53
2023-12-28T08:10:27.685Z,97434.94
2023-12-28T08:13:14.864Z,97431.31
2023-12-28T08:16:01.767Z,97428.81
2023-12-28T08:18:49.039Z,97433.13
2023-12-28T08:21:36.034Z,97442.84
2023-12-28T08:24:23.008Z,97446.31
2023-12-28T08:27:09.943Z,97446.19
2023-12-28T08:29:56.795Z,97444.66
2023-12-28T08:32:43.806Z,97444.50
2023-12-28T08:35:30.825Z,97449.78
2023-12-28T08:38:17.690Z,97438.41
2023-12-28T08:41:09.586Z,97448.81
2023-12-28T08:43:56.550Z,97448.81
2023-12-28T08:46:43.539Z,97455.88
2023-12-28T08:49:30.580Z,97464.66
2023-12-28T08:52:17.643Z,97458.50
2023-12-28T08:55:06.446Z,97463.78
2023-12-28T08:57:54.271Z,97459.38
2023-12-28T09:00:41.405Z,97455.88
2023-12-28T09:03:28.415Z,97460.19
2023-12-28T09:06:15.530Z,97457.56
2023-12-28T09:09:02.607Z,97458.38
2023-12-28T09:11:49.467Z,97463.66
2023-12-28T09:14:36.493Z,97465.31
2023-12-28T09:17:23.756Z,97464.31
2023-12-28T09:20:12.947Z,97466.00
2023-12-28T09:22:59.809Z,97464.19
2023-12-28T09:25:46.774Z,97462.38
2023-12-28T09:28:34.465Z,97459.59
2023-12-28T09:31:21.357Z,97461.41
2023-12-28T09:34:08.336Z,97465.72
2023-12-28T09:36:55.246Z,97461.28
2023-12-28T09:39:43.634Z,97472.50
2023-12-28T09:42:35.127Z,97467.09
2023-12-28T09:45:22.389Z,97456.66
2023-12-28T09:48:09.387Z,97451.53
2023-12-28T09:50:56.682Z,97456.53
2023-12-28T09:53:44.264Z,97461.81
2023-12-28T09:56:33.092Z,97454.72
2023-12-28T09:59:20.650Z,97453.72
2023-12-28T10:02:08.418Z,97455.38
2023-12-28T10:04:55.677Z,97442.19
2023-12-28T10:07:49.519Z,97432.47
2023-12-28T10:10:38.225Z,97450.94
2023-12-28T10:13:26.288Z,97432.34
2023-12-28T10:16:13.673Z,97427.06
2023-12-28T10:19:00.767Z,97422.59
2023-12-28T10:21:47.828Z,97429.53
2023-12-28T10:24:34.768Z,97420.78
2023-12-28T10:27:22.127Z,97414.53
2023-12-28T10:30:10.411Z,97416.34
2023-12-28T10:32:57.932Z,97407.59
2023-12-28T10:35:45.860Z,97405.50
2023-12-28T10:38:36.844Z,97398.56
2023-12-28T10:41:23.728Z,97392.28
2023-12-28T10:44:13.059Z,97401.03
2023-12-28T10:47:02.949Z,97402.72
2023-12-28T10:49:53.939Z,97419.38
2023-12-28T10:52:43.084Z,97409.66
2023-12-28T10:55:45.280Z,97409.66
2023-12-28T10:58:43.217Z,97405.91
2023-12-28T11:01:33.444Z,97404.22
2023-12-28T11:04:33.606Z,97390.06
2023-12-28T11:07:21.942Z,97388.25
2023-12-28T11:10:11.516Z,97388.25
2023-12-28T11:13:00.021Z,97378.50
2023-12-28T11:15:48.271Z,97375.88
2023-12-28T11:18:36.242Z,97383.63
2023-12-28T11:21:23.648Z,97381.81
2023-12-28T11:24:10.765Z,97371.94
2023-12-28T11:27:00.694Z,97356.13
2023-12-28T11:29:49.405Z,97352.66
2023-12-28T11:32:43.556Z,97354.31
2023-12-28T11:35:40.700Z,97355.94
2023-12-28T11:38:28.121Z,97353.31
2023-12-28T11:41:17.647Z,97361.91
2023-12-28T11:44:06.320Z,97373.31
2023-12-28T11:46:53.212Z,97369.84
2023-12-28T11:49:41.969Z,97368.03
2023-12-28T11:52:32.475Z,97375.81
2023-12-28T11:55:25.491Z,97370.38
2023-12-28T11:58:15.434Z,97365.09
2023-12-28T12:01:03.973Z,97369.53
2023-12-28T12:03:51.225Z,97365.78
2023-12-28T12:06:38.125Z,97376.34
2023-12-28T12:09:25.088Z,97378.00
2023-12-28T12:12:12.328Z,97370.06
2023-12-28T12:14:59.305Z,97376.88
2023-12-28T12:17:46.203Z,97381.28
2023-12-28T12:20:33.555Z,97381.16
2023-12-28T12:23:20.592Z,97368.56
2023-12-28T12:26:07.916Z,97375.06
2023-12-28T12:28:54.805Z,97378.53
2023-12-28T12:31:43.133Z,97371.25
2023-12-28T12:34:30.227Z,97367.69
2023-12-28T12:37:17.399Z,97361.44
2023-12-28T12:40:07.033Z,97357.97
2023-12-28T12:42:57.325Z,97349.88
2023-12-28T12:45:45.970Z,97342.13
2023-12-28T12:48:34.128Z,97342.78
2023-12-28T12:51:21.194Z,97346.09
2023-12-28T12:54:10.075Z,97353.03
2023-12-28T12:56:58.147Z,97341.66
2023-12-28T12:59:45.188Z,97351.22
2023-12-28T13:02:34.693Z,97345.13
2023-12-28T13:05:21.690Z,97340.66
2023-12-28T13:08:08.598Z,97332.59
2023-12-28T13:10:55.487Z,97322.03
2023-12-28T13:13:42.328Z,97316.59
2023-12-28T13:16:29.436Z,97325.34
2023-12-28T13:19:16.505Z,97320.88
2023-12-28T13:22:03.660Z,97324.38
2023-12-28T13:24:50.808Z,97315.47
2023-12-28T13:27:37.813Z,97320.59
2023-12-28T13:30:27.700Z,97312.66
2023-12-28T13:33:14.681Z,97324.91
2023-12-28T13:36:01.590Z,97330.84
2023-12-28T13:38:49.063Z,97329.03
2023-12-28T13:41:36.081Z,97328.22
2023-12-28T13:44:22.936Z,97319.28
2023-12-28T13:47:09.889Z,97316.66
2023-12-28T13:49:56.904Z,97309.59
2023-12-28T13:52:43.813Z,97319.97
2023-12-28T13:55:30.719Z,97329.72
2023-12-28T13:58:17.536Z,97327.91
2023-12-28T14:01:04.822Z,97328.59
2023-12-28T14:03:52.895Z,97319.00
2023-12-28T14:06:39.934Z,97318.03
2023-12-28T14:09:26.827Z,97321.50
2023-12-28T14:12:13.728Z,97323.16
2023-12-28T14:15:00.667Z,97321.19
2023-12-28T14:17:47.632Z,97320.34
2023-12-28T14:20:34.507Z,97310.63
2023-12-28T14:23:21.632Z,97311.44
2023-12-28T14:26:16.117Z,97312.28
2023-12-28T14:29:07.642Z,97321.84
2023-12-28T14:31:54.749Z,97319.06
2023-12-28T14:34:41.904Z,97320.84
2023-12-28T14:37:28.769Z,97329.63
2023-12-28T14:40:15.720Z,97322.66
2023-12-28T14:43:02.818Z,97329.47
2023-12-28T14:45:49.898Z,97333.09
2023-12-28T14:48:36.999Z,97330.28
2023-12-28T14:51:24.189Z,97330.47
2023-12-28T14:54:11.024Z,97318.56
2023-12-28T14:56:57.942Z,97329.63
2023-12-28T14:59:44.759Z,97333.75
2023-12-28T15:02:31.552Z,97335.28
2023-12-28T15:05:18.504Z,97332.31
2023-12-28T15:08:05.555Z,97344.38
2023-12-28T15:10:52.857Z,97346.72
2023-12-28T15:13:40.048Z,97340.47
2023-12-28T15:16:27.148Z,97336.97
2023-12-28T15:19:15.139Z,97345.75
2023-12-28T15:22:02.439Z,97328.91
2023-12-28T15:24:49.548Z,97331.56
2023-12-28T15:27:37.461Z,97329.56
2023-12-28T15:30:24.690Z,97334.84
2023-12-28T15:33:11.864Z,97327.78
2023-12-28T15:35:58.985Z,97330.25
2023-12-28T15:38:45.861Z,97326.78
2023-12-28T15:41:33.450Z,97338.88
2023-12-28T15:44:20.260Z,97330.09
2023-12-28T15:47:07.748Z,97323.00
2023-12-28T15:49:55.259Z,97329.94
2023-12-28T15:52:42.280Z,97317.56
2023-12-28T15:55:29.093Z,97316.56
2023-12-28T15:58:16.176Z,97309.47
2023-12-28T16:01:03.824Z,97320.88
2023-12-28T16:03:50.869Z,97314.59
2023-12-28T16:06:38.246Z,97314.59
2023-12-28T16:09:25.250Z,97309.97
2023-12-28T16:12:12.203Z,97310.84
2023-12-28T16:14:59.371Z,97308.19
2023-12-28T16:17:47.934Z,97306.38
2023-12-28T16:20:35.435Z,97302.91
2023-12-28T16:23:22.740Z,97301.91
2023-12-28T16:26:09.703Z,97292.16
2023-12-28T16:28:56.689Z,97273.66
2023-12-28T16:31:43.936Z,97277.97
2023-12-28T16:34:30.889Z,97272.53
2023-12-28T16:37:19.119Z,97272.53
2023-12-28T16:40:08.447Z,97277.81
2023-12-28T16:42:56.915Z,97283.75
2023-12-28T16:45:43.871Z,97280.13
2023-12-28T16:48:30.966Z,97280.13
2023-12-28T16:51:19.782Z,97274.84
2023-12-28T16:54:06.946Z,97276.50
2023-12-28T16:56:53.843Z,97275.53
2023-12-28T16:59:40.767Z,97264.13
2023-12-28T17:02:27.643Z,97250.75
2023-12-28T17:05:14.731Z,97257.69
2023-12-28T17:08:02.078Z,97267.41
2023-12-28T17:10:49.396Z,97268.28
2023-12-28T17:13:36.992Z,97280.50
2023-12-28T17:16:24.154Z,97282.31
2023-12-28T17:19:11.472Z,97287.59
2023-12-28T17:21:59.405Z,97264.63
2023-12-28T17:25:10.137Z,97267.09
2023-12-28T17:27:57.765Z,97279.50
2023-12-28T17:30:46.259Z,97279.38
2023-12-28T17:33:33.449Z,97284.66
2023-12-28T17:36:20.572Z,97265.28
2023-12-28T17:39:12.364Z,97272.25
2023-12-28T17:42:01.158Z,97274.72
2023-12-28T17:44:51.945Z,97273.91
2023-12-28T17:47:52.393Z,97272.25
2023-12-28T17:50:40.195Z,97282.66
2023-12-28T17:53:27.598Z,97286.13
2023-12-28T17:56:19.001Z,97280.69
2023-12-28T17:59:06.169Z,97290.44
2023-12-28T18:01:53.642Z,97294.75
2023-12-28T18:04:40.882Z,97286.94
2023-12-28T18:07:27.819Z,97286.63
2023-12-28T18:10:14.828Z,97306.81
2023-12-28T18:13:01.825Z,97304.19
2023-12-28T18:15:49.262Z,97312.94
2023-12-28T18:18:37.425Z,97305.00
2023-12-28T18:21:24.392Z,97312.75
2023-12-28T18:24:11.454Z,97306.66
2023-12-28T18:26:58.301Z,97307.47
2023-12-28T18:29:50.173Z,97311.94
2023-12-28T18:32:37.246Z,97316.22
2023-12-28T18:35:24.139Z,97313.44
2023-12-28T18:38:10.994Z,97309.13
2023-12-28T18:40:57.841Z,97309.97
2023-12-28T18:43:44.705Z,97308.28
2023-12-28T18:46:31.582Z,97319.56
2023-12-28T18:49:18.566Z,97307.34
2023-12-28T18:52:08.019Z,97314.25
2023-12-28T18:54:57.086Z,97303.69
2023-12-28T18:57:44.003Z,97294.13
2023-12-28T19:00:30.967Z,97288.81
2023-12-28T19:03:17.885Z,97290.47
2023-12-28T19:06:04.988Z,97290.47
2023-12-28T19:08:53.064Z,97286.00
2023-12-28T19:11:41.152Z,97289.47
2023-12-28T19:14:28.054Z,97282.53
2023-12-28T19:17:14.912Z,97270.31
2023-12-28T19:20:01.814Z,97273.78
2023-12-28T19:22:48.751Z,97268.50
2023-12-28T19:25:35.589Z,97271.16
2023-12-28T19:28:23.289Z,97270.31
2023-12-28T19:31:10.249Z,97268.50
2023-12-28T19:33:57.416Z,97265.84
2023-12-28T19:36:44.350Z,97262.41
2023-12-28T19:39:31.274Z,97264.19
2023-12-28T19:42:18.147Z,97261.53
2023-12-28T19:45:05.274Z,97266.81
2023-12-28T19:47:52.402Z,97266.00
2023-12-28T19:50:40.869Z,97271.59
2023-12-28T19:53:29.138Z,97273.09
2023-12-28T19:56:15.982Z,97275.75
2023-12-28T19:59:02.841Z,97278.56
2023-12-28T20:01:50.600Z,97278.56
2023-12-28T20:04:37.782Z,97274.25
2023-12-28T20:07:24.729Z,97259.38
2023-12-28T20:10:11.820Z,97259.38
2023-12-28T20:12:59.495Z,97255.91
2023-12-28T20:15:48.050Z,97269.13
2023-12-28T20:18:35.068Z,97276.22
2023-12-28T20:21:22.711Z,97273.72
2023-12-28T20:24:09.699Z,97269.13
2023-12-28T20:26:59.724Z,97270.94
2023-12-28T20:29:46.541Z,97265.50
2023-12-28T20:32:33.677Z,97280.38
2023-12-28T20:35:20.859Z,97270.63
2023-12-28T20:38:07.720Z,97272.47
2023-12-28T20:40:54.560Z,97269.81
2023-12-28T20:43:41.403Z,97271.47
2023-12-28T20:46:28.394Z,97275.75
2023-12-28T20:49:15.356Z,97276.56
2023-12-28T20:52:02.301Z,97264.19
2023-12-28T20:54:49.319Z,97261.53
2023-12-28T20:57:36.224Z,97259.06
2023-12-28T21:00:23.080Z,97259.06
2023-12-28T21:03:10.036Z,97252.13
2023-12-28T21:05:57.005Z,97261.88
2023-12-28T21:08:43.922Z,97259.25
2023-12-28T21:11:30.833Z,97261.88
2023-12-28T21:14:18.654Z,97263.53
2023-12-28T21:17:05.574Z,97253.94
2023-12-28T21:19:52.532Z,97252.97
2023-12-28T21:22:39.438Z,97254.78
2023-12-28T21:25:26.316Z,97256.41
2023-12-28T21:28:13.224Z,97256.41
2023-12-28T21:31:00.386Z,97251.31
2023-12-28T21:33:47.448Z,97247.81
2023-12-28T21:36:34.665Z,97251.44
2023-12-28T21:39:21.621Z,97248.66
2023-12-28T21:42:08.434Z,97260.88
2023-12-28T21:44:56.873Z,97247.81
2023-12-28T21:47:43.835Z,97253.94
2023-12-28T21:50:30.703Z,97251.31
2023-12-28T21:53:17.675Z,97245.34
2023-12-28T21:56:04.677Z,97233.78
2023-12-28T21:58:51.533Z,97239.06
2023-12-28T22:01:38.483Z,97240.72
2023-12-28T22:04:25.466Z,97244.34
2023-12-28T22:07:12.510Z,97241.69
2023-12-28T22:09:59.421Z,97244.34
2023-12-28T22:12:46.292Z,97249.63
2023-12-28T22:15:35.250Z,97248.66
2023-12-28T22:18:22.282Z,97248.66
2023-12-28T22:21:09.181Z,97247.81
2023-12-28T22:23:56.227Z,97253.94
2023-12-28T22:26:44.565Z,97253.09
2023-12-28T22:29:31.390Z,97253.94
2023-12-28T22:32:18.357Z,97243.38
2023-12-28T22:35:05.954Z,97239.06
2023-12-28T22:37:53.366Z,97235.44
2023-12-28T22:40:40.187Z,97237.09
2023-12-28T22:43:27.514Z,97221.22
2023-12-28T22:46:14.536Z,97226.34
2023-12-28T22:49:01.847Z,97227.34
2023-12-28T22:51:49.782Z,97220.22
2023-12-28T22:54:36.793Z,97214.13
2023-12-28T22:57:23.628Z,97209.84
2023-12-28T23:00:23.769Z,97213.13
2023-12-28T23:03:10.667Z,97212.31
2023-12-28T23:05:57.595Z,97209.66
2023-12-28T23:08:44.481Z,97203.38
2023-12-28T23:11:31.397Z,97199.09
2023-12-28T23:14:18.237Z,97201.91
2023-12-28T23:17:05.112Z,97205.19
2023-12-28T23:19:52.065Z,97205.88
2023-12-28T23:22:41.804Z,97200.41
2023-12-28T23:25:28.665Z,97200.28
2023-12-28T23:28:15.553Z,97205.56
2023-12-28T23:31:02.704Z,97198.78
2023-12-28T23:33:51.160Z,97211.00
2023-12-28T23:36:38.356Z,97206.53
2023-12-28T23:39:25.290Z,97203.88
2023-12-28T23:42:12.192Z,97202.91
2023-12-28T23:44:59.065Z,97202.09
2023-12-28T23:47:46.018Z,97200.28
2023-12-28T23:50:32.976Z,97200.41
2023-12-28T23:53:19.803Z,97197.78
2023-12-28T23:56:06.995Z,97202.25
2023-12-28T23:58:53.951Z,97198.78
